Time;durP1;ratioP1;P1;durP2;ratioP2;P2;SDS_P1;SDS_P2;PMS_P1;PMS_P2;Temp;Humidity;BMP_temperature;BMP_pressure;BME280_temperature;BME280_humidity;BME280_pressure;Samples;Min_cycle;Max_cycle;Signal;HPM_P1;HPM_P2
2022/05/10 00:01:27;;;;;;;11.10;8.50;;;;;;;18.88;51.32;98534.78;8356568;28;20236;-74
2022/05/10 00:05:35;;;;;;;11.13;8.70;;;;;;;18.84;51.48;98538.56;8385422;28;20243;-74
2022/05/10 00:09:39;;;;;;;10.27;8.93;;;;;;;18.85;51.57;98535.00;8385498;28;20427;-75
2022/05/10 00:13:42;;;;;;;11.23;8.70;;;;;;;18.80;51.02;98534.47;8385476;28;20243;-74
2022/05/10 00:17:47;;;;;;;11.40;9.10;;;;;;;18.75;51.48;98538.25;8385397;28;20231;-75
2022/05/10 00:21:51;;;;;;;10.90;8.83;;;;;;;18.67;51.86;98532.66;8385059;28;20238;-75
2022/05/10 00:25:55;;;;;;;10.60;8.97;;;;;;;18.65;51.69;98537.19;8384915;28;20234;-74
2022/05/10 00:29:58;;;;;;;10.13;9.10;;;;;;;18.64;51.65;98535.50;8385003;28;20538;-75
2022/05/10 00:34:02;;;;;;;10.13;8.50;;;;;;;18.49;51.94;98539.19;8384942;28;20236;-74
2022/05/10 00:38:05;;;;;;;9.43;7.90;;;;;;;18.48;51.54;98535.69;8384708;28;20574;-74
2022/05/10 00:42:16;;;;;;;9.97;6.97;;;;;;;18.35;51.46;98533.09;8384619;28;20243;-74
2022/05/10 00:46:24;;;;;;;8.27;7.17;;;;;;;18.30;51.41;98531.72;8384249;28;20239;-74
2022/05/10 00:50:32;;;;;;;8.57;7.10;;;;;;;18.33;51.02;98532.34;8383703;28;20235;-74
2022/05/10 00:54:39;;;;;;;6.93;6.23;;;;;;;18.15;51.05;98536.19;8384242;28;20253;-74
2022/05/10 00:58:46;;;;;;;7.50;6.20;;;;;;;18.06;51.00;98527.16;8383770;28;20247;-74
2022/05/10 01:03:00;;;;;;;10.47;5.90;;;;;;;18.06;51.61;98523.69;8383911;28;20242;-74
2022/05/10 01:07:06;;;;;;;9.83;6.37;;;;;;;18.05;51.42;98522.88;8383883;28;20236;-74
2022/05/10 01:11:11;;;;;;;8.93;6.50;;;;;;;17.97;51.71;98530.38;8383805;28;20235;-74
2022/05/10 01:15:17;;;;;;;7.77;5.93;;;;;;;17.89;51.38;98523.00;8382387;28;20231;-74
2022/05/10 01:19:21;;;;;;;7.60;6.30;;;;;;;17.82;51.79;98520.88;8383387;28;20519;-74
2022/05/10 01:23:50;;;;;;;10.60;6.97;;;;;;;17.76;52.18;98520.34;8382956;28;20231;-74
2022/05/10 01:28:16;;;;;;;11.50;7.47;;;;;;;17.79;52.11;98517.50;8383039;28;20549;-75
2022/05/10 01:37:00;;;;;;;10.67;7.60;;;;;;;17.68;52.33;98500.81;8298056;28;20411;-74
2022/05/10 01:41:08;;;;;;;10.37;7.93;;;;;;;17.67;52.50;98502.59;8349729;28;20246;-74
2022/05/10 01:45:18;;;;;;;10.77;8.03;;;;;;;17.65;52.69;98499.25;8349638;28;20228;-74
2022/05/10 01:49:30;;;;;;;9.93;8.10;;;;;;;17.70;52.27;98496.31;8349425;28;20242;-74
2022/05/10 01:53:35;;;;;;;10.97;9.13;;;;;;;17.59;52.74;98499.63;8349067;28;20228;-74
2022/05/10 01:57:39;;;;;;;11.50;10.30;;;;;;;17.65;53.28;98501.88;8349231;28;20231;-74
2022/05/10 02:01:43;;;;;;;15.80;11.83;;;;;;;17.55;53.52;98496.38;8349083;28;20447;-74
2022/05/10 02:05:52;;;;;;;12.83;11.40;;;;;;;17.55;52.91;98508.63;8348763;28;20224;-74
2022/05/10 02:09:59;;;;;;;13.37;11.30;;;;;;;17.49;53.26;98491.50;8348864;28;20232;-74
2022/05/10 02:14:07;;;;;;;15.73;11.70;;;;;;;17.43;53.24;98491.09;8348728;28;20405;-74
2022/05/10 02:18:16;;;;;;;14.80;12.20;;;;;;;17.47;53.02;98497.81;8348488;28;20240;-74
2022/05/10 02:22:23;;;;;;;14.93;12.80;;;;;;;17.42;53.15;98492.88;8348504;28;20416;-74
2022/05/10 02:26:31;;;;;;;14.53;12.50;;;;;;;17.44;53.24;98491.00;8347514;28;20243;-74
2022/05/10 02:30:36;;;;;;;16.73;13.70;;;;;;;17.37;53.50;98487.91;8348143;28;20243;-74
2022/05/10 02:34:45;;;;;;;18.77;13.30;;;;;;;17.36;53.52;98490.63;8348196;28;20227;-74
2022/05/10 02:38:48;;;;;;;12.70;10.13;;;;;;;17.23;52.67;98493.19;8348226;28;20225;-75
2022/05/10 02:42:51;;;;;;;12.97;11.17;;;;;;;17.18;52.88;98492.63;8347876;28;20243;-74
2022/05/10 02:46:55;;;;;;;13.10;11.60;;;;;;;17.16;52.73;98499.75;8347922;28;20232;-74
2022/05/10 02:50:59;;;;;;;12.23;9.47;;;;;;;17.05;52.38;98489.13;8347983;28;20265;-74
2022/05/10 02:55:09;;;;;;;9.33;8.30;;;;;;;17.10;52.17;98482.66;8347946;28;20228;-74
2022/05/10 02:59:15;;;;;;;8.97;8.07;;;;;;;16.95;51.99;98476.59;8347756;28;20225;-74
2022/05/10 03:03:19;;;;;;;10.67;8.63;;;;;;;16.95;52.67;98467.91;8347576;28;20423;-74
2022/05/10 03:07:24;;;;;;;11.60;9.90;;;;;;;16.87;52.93;98470.16;8380135;28;20231;-72
2022/05/10 03:11:27;;;;;;;13.00;10.10;;;;;;;16.86;53.08;98465.88;8380498;28;20235;-73
2022/05/10 03:15:30;;;;;;;11.10;9.30;;;;;;;16.77;52.45;98467.25;8380213;28;20238;-73
2022/05/10 03:19:33;;;;;;;9.63;8.60;;;;;;;16.72;52.23;98471.94;8379973;28;20237;-73
2022/05/10 03:23:38;;;;;;;10.37;9.10;;;;;;;16.68;52.42;98475.66;8380185;28;20522;-73
2022/05/10 03:27:41;;;;;;;9.50;8.50;;;;;;;16.66;52.64;98465.31;8379975;28;20238;-74
2022/05/10 03:31:44;;;;;;;11.23;10.03;;;;;;;16.59;52.62;98475.28;8380092;28;20231;-75
2022/05/10 03:35:47;;;;;;;15.27;12.83;;;;;;;16.61;54.07;98476.03;8379999;28;20237;-74
2022/05/10 03:39:52;;;;;;;16.87;14.10;;;;;;;16.59;54.62;98477.91;8385153;28;20417;-75
2022/05/10 03:43:55;;;;;;;14.83;13.40;;;;;;;16.65;54.48;98478.47;8386517;28;20223;-74
2022/05/10 03:47:58;;;;;;;15.83;12.70;;;;;;;16.68;54.66;98473.91;8386316;28;20549;-74
2022/05/10 03:52:02;;;;;;;14.40;12.20;;;;;;;16.64;54.72;98471.53;8386236;28;20238;-74
2022/05/10 03:56:07;;;;;;;14.30;12.83;;;;;;;16.74;54.86;98476.13;8386002;28;20235;-75
2022/05/10 04:00:13;;;;;;;15.27;12.70;;;;;;;16.57;55.14;98473.69;8385558;28;20232;-75
2022/05/10 04:04:16;;;;;;;18.73;13.47;;;;;;;16.43;55.34;98469.31;8385775;28;20541;-75
2022/05/10 04:08:19;;;;;;;15.30;13.27;;;;;;;16.38;55.60;98466.13;8385728;28;20235;-75
2022/05/10 04:12:23;;;;;;;15.17;13.07;;;;;;;16.39;55.59;98473.88;8385223;28;20549;-75
2022/05/10 04:16:26;;;;;;;15.33;13.20;;;;;;;16.54;55.17;98461.63;8385426;28;20231;-74
2022/05/10 04:20:29;;;;;;;16.53;13.13;;;;;;;16.57;55.54;98460.63;8385226;28;20242;-74
2022/05/10 04:24:32;;;;;;;21.17;16.50;;;;;;;16.34;56.04;98462.03;8384975;28;20242;-74
2022/05/10 04:28:38;;;;;;;17.00;14.47;;;;;;;16.51;55.71;98456.63;8384941;28;20237;-74
2022/05/10 04:32:41;;;;;;;17.63;14.87;;;;;;;15.91;58.14;98461.94;8384814;28;20227;-74
2022/05/10 04:36:44;;;;;;;17.43;13.30;;;;;;;16.54;55.76;98466.03;8384501;28;20238;-75
2022/05/10 04:45:10;;;;;;;18.50;16.50;;;;;;;16.09;57.15;98473.94;8361860;28;20227;-74
2022/05/10 04:49:15;;;;;;;20.10;16.17;;;;;;;16.14;57.26;98482.31;8369827;28;20228;-74
2022/05/10 04:53:18;;;;;;;18.87;15.43;;;;;;;16.40;56.44;98482.56;8381889;28;20557;-75
2022/05/10 04:57:21;;;;;;;21.50;16.07;;;;;;;15.98;57.84;98485.00;8384262;28;20236;-74
2022/05/10 05:01:27;;;;;;;18.80;15.37;;;;;;;16.40;56.34;98485.19;8383297;28;20231;-73
2022/05/10 05:05:31;;;;;;;18.57;13.83;;;;;;;16.13;57.44;98490.28;8383721;28;20233;-73
2022/05/10 05:09:33;;;;;;;18.77;13.80;;;;;;;16.41;56.45;98490.31;8383695;28;20552;-73
2022/05/10 05:13:37;;;;;;;17.23;12.37;;;;;;;16.50;56.07;98499.38;8383697;28;20228;-74
2022/05/10 05:17:41;;;;;;;14.80;12.80;;;;;;;16.46;56.17;98492.63;8383722;28;20235;-76
2022/05/10 05:21:45;;;;;;;14.23;12.77;;;;;;;16.28;56.56;98491.13;8383260;28;20295;-76
2022/05/10 05:25:48;;;;;;;14.10;12.57;;;;;;;16.43;56.39;98492.84;8382780;28;20234;-75
2022/05/10 05:29:52;;;;;;;14.43;11.53;;;;;;;16.91;55.14;98493.44;8383296;28;20234;-79
2022/05/10 05:34:06;;;;;;;18.20;13.00;;;;;;;16.53;56.08;98499.19;8382944;28;20243;-79
2022/05/10 05:38:09;;;;;;;19.93;14.40;;;;;;;16.23;56.68;98494.84;8382628;28;20415;-78
2022/05/10 05:42:13;;;;;;;16.47;13.47;;;;;;;16.30;56.55;98495.34;8382920;28;20236;-77
2022/05/10 05:46:16;;;;;;;15.33;12.53;;;;;;;16.47;56.53;98489.09;8382804;28;20245;-75
2022/05/10 05:50:22;;;;;;;15.07;13.17;;;;;;;16.49;56.22;98489.03;8382488;28;20565;-76
2022/05/10 05:54:31;;;;;;;15.07;12.73;;;;;;;16.79;56.25;98483.69;8374966;28;20338;-75
2022/05/10 05:58:34;;;;;;;16.87;13.50;;;;;;;16.87;55.52;98480.63;8382180;28;20545;-75
2022/05/10 06:02:38;;;;;;;15.87;13.27;;;;;;;17.20;55.38;98483.75;8381398;28;20427;-77
2022/05/10 06:06:42;;;;;;;15.30;12.67;;;;;;;17.11;55.54;98488.72;8381934;28;20238;-76
2022/05/10 06:10:50;;;;;;;14.90;12.60;;;;;;;17.19;55.41;98476.00;8381812;28;20230;-75
2022/05/10 06:14:53;;;;;;;14.60;12.43;;;;;;;17.45;55.36;98482.19;8381590;28;20230;-76
2022/05/10 06:18:56;;;;;;;13.33;11.97;;;;;;;17.88;53.79;98476.81;8381987;28;20227;-76
2022/05/10 06:23:01;;;;;;;13.57;11.90;;;;;;;18.13;53.61;98480.41;8381275;28;20235;-76
2022/05/10 06:27:05;;;;;;;14.10;12.47;;;;;;;18.05;54.51;98485.31;8381327;28;20242;-76
2022/05/10 06:31:09;;;;;;;15.17;13.30;;;;;;;18.03;54.42;98484.56;8381259;28;20227;-76
2022/05/10 06:35:12;;;;;;;16.90;12.63;;;;;;;18.26;54.16;98485.66;8381397;28;20242;-77
2022/05/10 06:39:22;;;;;;;16.50;12.00;;;;;;;18.76;52.97;98482.19;8381089;28;20237;-77
2022/05/10 06:43:25;;;;;;;14.33;11.37;;;;;;;18.81;51.97;98487.16;8380426;28;20235;-76
2022/05/10 06:47:29;;;;;;;17.90;13.00;;;;;;;18.57;52.66;98487.03;8380736;28;20237;-76
2022/05/10 06:51:33;;;;;;;14.40;12.10;;;;;;;18.93;52.30;98486.28;8380596;28;20568;-74
2022/05/10 06:55:39;;;;;;;12.67;10.63;;;;;;;19.37;51.33;98481.44;8380641;28;20236;-74
2022/05/10 06:59:43;;;;;;;13.43;11.93;;;;;;;19.21;50.85;98486.97;8380626;28;20254;-74
2022/05/10 07:03:47;;;;;;;11.23;10.07;;;;;;;19.64;50.42;98480.38;8380530;28;20232;-75
2022/05/10 07:07:50;;;;;;;14.83;9.93;;;;;;;20.04;49.38;98478.28;8355582;28;20231;-75
2022/05/10 07:11:54;;;;;;;13.13;10.03;;;;;;;20.22;48.95;98477.84;8349825;28;20242;-75
2022/05/10 07:15:58;;;;;;;16.30;10.63;;;;;;;20.26;48.95;98479.31;8354413;28;20228;-74
2022/05/10 07:20:02;;;;;;;11.60;9.77;;;;;;;20.37;48.80;98476.69;8354350;28;20229;-75
2022/05/10 07:24:06;;;;;;;13.30;9.40;;;;;;;20.81;47.74;98476.84;8353901;28;20299;-75
2022/05/10 07:28:11;;;;;;;12.80;8.90;;;;;;;20.96;47.28;98477.44;8353610;28;20250;-75
2022/05/10 07:32:15;;;;;;;12.33;9.43;;;;;;;21.28;46.43;98481.00;8353834;28;20244;-75
2022/05/10 07:36:33;;;;;;;11.80;9.57;;;;;;;20.86;46.89;98475.53;8353857;28;20558;-75
2022/05/10 07:40:37;;;;;;;10.67;8.83;;;;;;;21.91;46.13;98472.41;8352990;28;20254;-74
2022/05/10 07:44:41;;;;;;;9.57;8.00;;;;;;;22.40;44.02;98470.94;8353356;28;20235;-75
2022/05/10 07:48:44;;;;;;;16.47;9.13;;;;;;;22.22;44.49;98473.31;8353342;28;20240;-74
2022/05/10 07:52:51;;;;;;;10.53;9.37;;;;;;;22.56;43.54;98477.56;8353182;28;20251;-74
2022/05/10 07:56:59;;;;;;;8.43;7.57;;;;;;;22.77;42.78;98472.22;8352994;28;20238;-75
2022/05/10 08:01:04;;;;;;;11.40;8.47;;;;;;;22.95;42.90;98465.34;8381024;28;20235;-74
2022/05/10 08:05:08;;;;;;;13.20;9.00;;;;;;;22.84;42.79;98466.28;8358794;28;20262;-75
2022/05/10 08:09:11;;;;;;;12.33;7.60;;;;;;;23.24;42.95;98467.25;8352359;28;20220;-74
2022/05/10 08:13:16;;;;;;;11.43;7.80;;;;;;;23.52;42.29;98463.00;8352699;28;20231;-75
2022/05/10 08:17:21;;;;;;;11.57;8.57;;;;;;;23.14;42.26;98461.13;8352532;28;20239;-75
2022/05/10 08:21:23;;;;;;;9.53;7.80;;;;;;;23.44;41.62;98460.22;8353110;28;20241;-74
2022/05/10 08:25:27;;;;;;;11.50;7.67;;;;;;;23.82;40.49;98463.88;8384143;28;20235;-75
2022/05/10 08:29:30;;;;;;;9.67;7.80;;;;;;;24.03;40.94;98460.22;8385173;28;20235;-75
2022/05/10 08:33:36;;;;;;;8.67;7.70;;;;;;;24.01;40.08;98463.03;8384900;28;20243;-75
2022/05/10 08:37:38;;;;;;;10.87;7.30;;;;;;;24.05;40.15;98451.19;8385022;28;20238;-75
2022/05/10 08:41:45;;;;;;;10.17;7.03;;;;;;;23.84;41.70;98451.34;8384643;28;20618;-75
2022/05/10 08:45:48;;;;;;;9.40;7.13;;;;;;;24.30;40.13;98444.44;8384556;28;20303;-74
2022/05/10 08:49:55;;;;;;;9.57;6.20;;;;;;;24.73;39.96;98450.16;8384348;28;20223;-74
2022/05/10 08:54:19;;;;;;;7.50;6.20;;;;;;;24.91;38.91;98447.59;8383751;28;20228;-74
2022/05/10 08:58:55;;;;;;;7.17;6.47;;;;;;;25.31;38.10;98444.56;8375686;28;20215;-73
2022/05/10 09:03:19;;;;;;;11.73;6.90;;;;;;;24.63;38.84;98444.09;8291195;28;20282;-74
2022/05/10 09:07:35;;;;;;;10.80;5.57;;;;;;;25.39;36.03;98438.50;8383790;28;20279;-74
2022/05/10 09:11:46;;;;;;;7.60;5.63;;;;;;;26.02;36.02;98436.75;8383616;28;20236;-74
2022/05/10 09:15:54;;;;;;;22.80;6.30;;;;;;;25.89;35.24;98434.47;8383539;28;20511;-74
2022/05/10 09:19:58;;;;;;;9.43;6.00;;;;;;;26.11;35.61;98427.88;8383502;28;20261;-74
2022/05/10 09:24:30;;;;;;;7.77;5.80;;;;;;;25.89;33.40;98426.50;8382940;28;20246;-74
2022/05/10 09:28:38;;;;;;;10.57;5.67;;;;;;;26.21;33.69;98430.41;8383243;28;20261;-74
2022/05/10 09:37:22;;;;;;;7.13;5.30;;;;;;;26.56;32.39;98423.31;8381956;28;20254;-74
2022/05/10 09:41:32;;;;;;;12.73;6.27;;;;;;;26.92;32.14;98416.84;8382298;28;20404;-73
2022/05/10 09:45:36;;;;;;;5.80;5.07;;;;;;;27.45;32.13;98409.50;8382564;28;20268;-73
2022/05/10 09:49:39;;;;;;;7.43;5.80;;;;;;;27.08;32.65;98416.06;8382619;28;20233;-73
2022/05/10 09:53:42;;;;;;;9.20;6.03;;;;;;;26.97;31.34;98411.03;8382253;28;20246;-74
2022/05/10 09:57:48;;;;;;;5.30;4.80;;;;;;;26.37;32.82;98411.09;8382050;28;20404;-74
2022/05/10 10:01:54;;;;;;;5.67;4.60;;;;;;;27.08;31.62;98409.91;8382346;28;20229;-74
2022/05/10 10:06:15;;;;;;;5.37;3.77;;;;;;;27.46;29.61;98397.88;8381962;28;20240;-73
2022/05/10 10:10:21;;;;;;;10.20;4.17;;;;;;;25.94;29.95;98403.88;8381905;28;20232;-73
2022/05/10 10:14:41;;;;;;;7.47;3.90;;;;;;;25.22;30.86;98396.91;8355796;28;20245;-73
2022/05/10 10:18:47;;;;;;;6.57;4.17;;;;;;;26.10;29.85;98392.53;8347981;28;20241;-74
2022/05/10 10:22:52;;;;;;;7.53;3.67;;;;;;;26.60;29.97;98388.34;8348448;28;20251;-74
2022/05/10 10:26:58;;;;;;;7.37;4.17;;;;;;;26.91;29.54;98371.84;8327281;28;20239;-75
2022/05/10 10:31:15;;;;;;;5.10;4.00;;;;;;;27.11;28.07;98373.22;8315851;28;20233;-75
2022/05/10 10:35:22;;;;;;;8.23;4.10;;;;;;;26.30;30.53;98368.44;8315686;28;20338;-73
2022/05/10 10:39:31;;;;;;;5.17;4.13;;;;;;;26.38;30.67;98363.16;8314820;28;20232;-74
2022/05/10 10:43:41;;;;;;;7.50;4.57;;;;;;;27.49;30.15;98351.50;8315244;28;20236;-72
2022/05/10 10:47:52;;;;;;;7.63;4.07;;;;;;;27.33;28.08;98360.31;8314857;28;20236;-73
2022/05/10 10:51:56;;;;;;;5.73;4.10;;;;;;;27.56;28.51;98352.50;8315121;28;20293;-74
2022/05/10 10:56:41;;;;;;;5.60;3.73;;;;;;;27.72;27.56;98351.66;8314722;28;20575;-74
2022/05/10 11:00:55;;;;;;;5.93;3.80;;;;;;;28.06;27.42;98348.81;8272883;28;20458;-74
2022/05/10 11:05:10;;;;;;;12.13;4.10;;;;;;;28.19;26.64;98342.94;8282207;28;20292;-74
2022/05/10 11:09:38;;;;;;;6.93;3.90;;;;;;;27.96;27.91;98337.50;8282368;28;20576;-74
2022/05/10 11:13:52;;;;;;;5.20;3.37;;;;;;;27.36;28.36;98327.22;8279715;28;20240;-74
2022/05/10 11:18:04;;;;;;;5.73;3.73;;;;;;;27.89;26.48;98328.53;8282136;28;20239;-74
2022/05/10 11:22:18;;;;;;;6.50;3.40;;;;;;;28.31;26.22;98321.25;8282048;28;20235;-74
2022/05/10 11:26:33;;;;;;;5.10;2.97;;;;;;;28.24;26.72;98319.28;8313833;28;20243;-74
2022/05/10 11:30:41;;;;;;;4.90;3.30;;;;;;;28.63;25.61;98317.63;8332415;28;20510;-74
2022/05/10 11:35:06;;;;;;;9.93;3.37;;;;;;;28.49;26.50;98313.84;8347141;28;20246;-74
2022/05/10 11:39:42;;;;;;;4.57;3.53;;;;;;;28.57;26.20;98300.53;8337890;28;20235;-74
2022/05/10 11:44:21;;;;;;;5.33;3.60;;;;;;;28.13;26.07;98295.69;8344545;28;20235;-74
2022/05/10 11:49:08;;;;;;;93.37;7.00;;;;;;;28.18;25.12;98301.34;8346405;28;20230;-75
2022/05/10 11:53:42;;;;;;;426.87;15.20;;;;;;;28.62;26.20;98292.03;8327161;28;20241;-74
2022/05/10 11:57:56;;;;;;;11.90;3.63;;;;;;;28.46;25.84;98291.06;8347255;28;20323;-75
2022/05/10 12:02:00;;;;;;;33.57;4.10;;;;;;;28.58;26.34;98288.06;8385768;28;20243;-74
2022/05/10 12:06:48;;;;;;;33.73;4.47;;;;;;;28.35;25.88;98286.13;8385420;28;20248;-74
2022/05/10 12:10:51;;;;;;;32.00;4.37;;;;;;;28.17;25.65;98277.56;8385025;28;20237;-75
2022/05/10 12:24:07;;;;;;;20.90;3.97;;;;;;;26.82;27.20;98266.53;8385137;28;20241;-75
2022/05/10 12:28:10;;;;;;;11.07;3.40;;;;;;;26.47;26.81;98255.97;8384486;28;20241;-75
2022/05/10 12:32:44;;;;;;;7.80;3.07;;;;;;;27.30;27.06;98259.59;8385049;28;20420;-74
2022/05/10 12:36:47;;;;;;;3.83;3.10;;;;;;;27.28;26.37;98242.97;8384607;28;20224;-74
2022/05/10 12:41:03;;;;;;;9.70;3.53;;;;;;;26.99;26.51;98246.94;8388339;28;20242;-78
2022/05/10 12:45:21;;;;;;;3.77;2.90;;;;;;;26.90;26.01;98242.63;8384272;28;20428;-74
2022/05/10 12:49:44;;;;;;;6.60;3.03;;;;;;;27.02;25.08;98230.69;8383829;28;20233;-77
2022/05/10 12:53:58;;;;;;;18.50;3.33;;;;;;;26.61;25.57;98222.69;8374868;28;20231;-74
2022/05/10 12:58:05;;;;;;;15.57;3.53;;;;;;;26.34;26.79;98221.94;8367132;28;20263;-74
2022/05/10 13:02:10;;;;;;;13.33;3.50;;;;;;;26.41;27.09;98214.16;8383194;28;20247;-74
2022/05/10 13:06:21;;;;;;;9.23;3.10;;;;;;;26.69;25.84;98216.53;8383015;28;20246;-72
2022/05/10 13:10:25;;;;;;;8.03;2.93;;;;;;;27.26;25.32;98213.94;8383030;28;20421;-72
2022/05/10 13:14:30;;;;;;;6.07;3.23;;;;;;;28.26;24.96;98204.63;8383378;28;20248;-73
2022/05/10 13:18:33;;;;;;;5.13;3.33;;;;;;;28.78;24.12;98193.31;8383239;28;20424;-73
2022/05/10 13:22:38;;;;;;;7.50;3.00;;;;;;;28.16;24.02;98194.19;8382896;28;20244;-73
2022/05/10 13:26:52;;;;;;;7.07;3.20;;;;;;;28.80;23.14;98187.81;8358362;28;20239;-74
2022/05/10 13:30:57;;;;;;;5.33;3.30;;;;;;;28.96;23.17;98181.50;8368073;28;20235;-74
2022/05/10 13:35:06;;;;;;;3.73;2.90;;;;;;;29.13;23.51;98183.06;8361420;28;20238;-73
2022/05/10 13:39:16;;;;;;;6.80;2.70;;;;;;;29.29;23.17;98165.22;8365481;28;20238;-73
2022/05/10 13:43:20;;;;;;;5.10;3.27;;;;;;;29.10;24.17;98169.22;8365527;28;20225;-73
2022/05/10 13:47:29;;;;;;;4.07;2.90;;;;;;;28.84;23.64;98171.28;8363151;28;20442;-73
2022/05/10 13:51:34;;;;;;;6.33;3.10;;;;;;;28.23;24.21;98160.53;8363981;28;20230;-73
2022/05/10 13:55:42;;;;;;;5.83;3.30;;;;;;;28.26;24.05;98160.19;8364947;28;20234;-73
2022/05/10 13:59:46;;;;;;;5.70;3.00;;;;;;;28.03;23.92;98149.50;8359576;28;20540;-74
2022/05/10 14:03:49;;;;;;;5.03;2.70;;;;;;;28.70;23.52;98145.41;8361595;28;20242;-74
2022/05/10 14:07:56;;;;;;;5.43;3.03;;;;;;;28.91;23.46;98143.91;8372156;28;20423;-74
2022/05/10 14:12:02;;;;;;;4.37;2.90;;;;;;;28.73;23.74;98128.22;8348879;28;20435;-73
2022/05/10 14:16:07;;;;;;;3.57;2.33;;;;;;;28.76;24.34;98130.53;8370360;28;20245;-74
2022/05/10 14:20:19;;;;;;;8.07;3.00;;;;;;;27.88;24.02;98122.81;8381500;28;20241;-74
2022/05/10 14:24:23;;;;;;;5.03;2.60;;;;;;;27.90;25.41;98129.78;8380425;28;20238;-73
2022/05/10 14:28:33;;;;;;;4.77;3.20;;;;;;;28.08;24.21;98117.88;8315623;28;20233;-74
2022/05/10 14:32:39;;;;;;;4.90;2.83;;;;;;;27.90;24.74;98112.00;8315570;28;20237;-74
2022/05/10 14:36:45;;;;;;;4.47;2.83;;;;;;;27.60;25.93;98106.44;8315398;28;20376;-74
2022/05/10 14:40:54;;;;;;;5.50;3.10;;;;;;;27.32;25.25;98108.72;8314330;28;20308;-74
2022/05/10 14:45:20;;;;;;;5.27;3.07;;;;;;;27.28;25.27;98102.94;8315452;28;20549;-74
2022/05/10 14:49:39;;;;;;;6.73;2.83;;;;;;;27.24;25.70;98109.53;8314447;28;20237;-73
2022/05/10 14:53:52;;;;;;;5.10;4.40;;;;;;;27.11;25.68;98096.78;8315023;28;20241;-74
2022/05/10 14:57:58;;;;;;;4.57;3.30;;;;;;;27.01;26.09;98101.44;8315075;28;20434;-74
2022/05/10 15:02:20;;;;;;;6.20;3.40;;;;;;;27.14;26.19;98089.47;8314808;28;20296;-74
2022/05/10 15:06:23;;;;;;;6.10;3.17;;;;;;;27.00;26.35;98089.19;8314034;28;20243;-74
2022/05/10 15:10:26;;;;;;;3.53;3.10;;;;;;;26.70;26.07;98086.22;8314790;28;20244;-74
2022/05/10 15:14:32;;;;;;;4.33;3.20;;;;;;;26.99;26.09;98079.53;8314704;28;20243;-74
2022/05/10 15:22:58;;;;;;;5.23;2.80;;;;;;;27.22;26.19;98078.81;8314846;28;20227;-73
2022/05/10 15:27:04;;;;;;;5.13;3.03;;;;;;;27.19;26.21;98069.38;8357583;28;20310;-74
2022/05/10 15:31:07;;;;;;;5.93;3.20;;;;;;;27.20;26.32;98070.19;8380154;28;20231;-73
2022/05/10 15:35:12;;;;;;;3.70;3.10;;;;;;;27.03;26.31;98064.09;8384328;28;20231;-74
2022/05/10 15:39:15;;;;;;;7.23;3.60;;;;;;;27.01;26.83;98066.91;8386722;28;20426;-74
2022/05/10 15:43:18;;;;;;;3.70;3.10;;;;;;;27.16;26.64;98063.56;8386549;28;20234;-74
2022/05/10 15:47:22;;;;;;;7.27;2.80;;;;;;;26.96;26.95;98057.78;8385959;28;20234;-74
2022/05/10 15:51:34;;;;;;;4.53;3.10;;;;;;;26.92;27.63;98055.50;8386131;28;20227;-75
2022/05/10 15:55:38;;;;;;;3.63;3.13;;;;;;;26.74;27.59;98057.50;8386207;28;20235;-74
2022/05/10 15:59:41;;;;;;;5.60;3.43;;;;;;;26.75;27.73;98050.38;8385863;28;20235;-74
2022/05/10 16:03:44;;;;;;;3.80;3.50;;;;;;;26.77;27.96;98053.69;8386040;28;20505;-74
2022/05/10 16:07:49;;;;;;;6.07;3.20;;;;;;;26.58;27.69;98046.88;8385788;28;20258;-74
2022/05/10 16:11:53;;;;;;;7.10;3.47;;;;;;;26.46;27.97;98039.25;8385761;28;20226;-75
2022/05/10 16:15:56;;;;;;;5.23;3.20;;;;;;;26.48;28.20;98037.28;8385359;28;20228;-74
2022/05/10 16:19:59;;;;;;;6.20;3.33;;;;;;;26.48;28.02;98039.09;8355411;28;20231;-74
2022/05/10 16:24:04;;;;;;;5.83;3.43;;;;;;;26.24;28.65;98038.09;8351943;28;20236;-75
2022/05/10 16:32:28;;;;;;;6.37;3.13;;;;;;;26.14;28.52;98030.31;8351366;28;20424;-73
2022/05/10 16:36:32;;;;;;;5.37;3.07;;;;;;;26.13;28.91;98027.81;8351675;28;20535;-74
2022/05/10 16:40:38;;;;;;;5.03;2.90;;;;;;;26.13;28.77;98027.81;8351534;28;20237;-72
2022/05/10 16:44:41;;;;;;;4.10;3.17;;;;;;;26.06;29.86;98026.81;8351038;28;20624;-72
2022/05/10 16:48:45;;;;;;;5.50;3.40;;;;;;;25.92;29.28;98026.47;8353835;28;20611;-73
2022/05/10 16:52:48;;;;;;;4.50;3.10;;;;;;;25.90;29.41;98017.00;8384463;28;20232;-73
2022/05/10 16:56:55;;;;;;;5.83;3.20;;;;;;;25.75;29.71;98020.28;8384105;28;20494;-73
2022/05/10 17:00:59;;;;;;;4.30;3.07;;;;;;;25.67;30.00;98011.50;8383633;28;20558;-71
2022/05/10 17:05:06;;;;;;;5.33;3.23;;;;;;;25.74;30.32;98008.03;8383525;28;20249;-75
2022/05/10 17:09:11;;;;;;;5.87;3.40;;;;;;;25.55;30.74;98003.84;8383909;28;20239;-73
2022/05/10 17:13:15;;;;;;;6.10;2.83;;;;;;;25.51;30.50;98007.81;8383586;28;20234;-73
2022/05/10 17:17:18;;;;;;;5.83;3.33;;;;;;;25.40;31.21;98005.47;8383548;28;20225;-73
2022/05/10 17:21:23;;;;;;;5.67;3.23;;;;;;;25.38;31.40;98007.44;8383406;28;20240;-74
2022/05/10 17:25:28;;;;;;;5.07;3.13;;;;;;;25.25;31.37;98001.78;8382486;28;20239;-74
2022/05/10 17:29:33;;;;;;;3.90;2.80;;;;;;;25.26;31.56;98004.25;8383108;28;20234;-74
2022/05/10 17:33:37;;;;;;;4.40;3.07;;;;;;;25.15;31.63;97997.41;8382989;28;20258;-71
2022/05/10 17:37:40;;;;;;;7.63;4.90;;;;;;;25.06;32.62;97992.22;8382753;28;20238;-73
2022/05/10 17:41:44;;;;;;;11.67;5.43;;;;;;;25.01;33.27;97992.69;8382671;28;20234;-72
2022/05/10 17:45:55;;;;;;;6.10;4.73;;;;;;;24.90;32.63;97995.63;8382464;28;20238;-73
2022/05/10 17:49:59;;;;;;;5.00;4.03;;;;;;;24.90;32.76;97992.97;8382643;28;20235;-72
2022/05/10 17:54:02;;;;;;;7.10;4.80;;;;;;;24.81;33.11;97993.91;8382470;28;20233;-74
2022/05/10 17:58:05;;;;;;;6.50;4.00;;;;;;;24.86;33.00;97992.44;8381596;28;20227;-74
2022/05/10 18:02:10;;;;;;;10.33;5.23;;;;;;;24.82;34.18;97990.28;8382239;28;20241;-73
2022/05/10 18:06:14;;;;;;;8.20;5.10;;;;;;;24.71;34.77;97992.22;8382133;28;20236;-74
2022/05/10 18:10:17;;;;;;;11.57;6.50;;;;;;;24.69;35.09;98004.78;8382052;28;20228;-73
2022/05/10 18:14:21;;;;;;;8.93;5.87;;;;;;;24.59;35.39;97993.47;8381836;28;20599;-73
2022/05/10 18:18:26;;;;;;;14.73;5.97;;;;;;;24.52;35.71;97995.06;8381361;28;20234;-73
2022/05/10 18:22:29;;;;;;;6.50;4.30;;;;;;;24.42;35.34;97992.50;8381537;28;20235;-72
2022/05/10 18:26:32;;;;;;;6.27;4.03;;;;;;;24.36;35.72;97995.78;8357884;28;20228;-74
2022/05/10 18:30:35;;;;;;;6.43;3.93;;;;;;;24.28;35.62;97995.72;8366341;28;20223;-72
2022/05/10 18:34:41;;;;;;;8.70;4.53;;;;;;;24.26;35.88;97997.69;8365157;28;20318;-73
2022/05/10 18:38:44;;;;;;;12.73;4.80;;;;;;;24.22;36.08;97993.66;8365703;28;20237;-74
2022/05/10 18:42:48;;;;;;;7.37;4.57;;;;;;;24.12;36.23;97996.41;8364011;28;20227;-72
2022/05/10 18:46:51;;;;;;;5.03;4.53;;;;;;;24.04;36.79;97993.69;8363362;28;20239;-74
2022/05/10 18:50:55;;;;;;;8.90;5.07;;;;;;;23.97;37.05;97999.63;8359300;28;20228;-73
2022/05/10 18:54:58;;;;;;;6.70;4.70;;;;;;;23.96;37.75;98002.41;8364148;28;20289;-73
2022/05/10 18:59:03;;;;;;;7.60;5.37;;;;;;;23.89;38.56;98010.09;8361199;28;20231;-74
2022/05/10 19:03:06;;;;;;;6.40;5.43;;;;;;;23.79;39.12;98012.00;8364447;28;20588;-73
2022/05/10 19:07:12;;;;;;;39.33;6.60;;;;;;;23.72;39.39;98010.88;8379887;28;20231;-73
2022/05/10 19:11:15;;;;;;;28.27;6.50;;;;;;;23.60;39.98;98012.94;8380706;28;20231;-73
2022/05/10 19:15:20;;;;;;;7.60;6.00;;;;;;;23.57;41.06;98019.34;8380504;28;20235;-73
2022/05/10 19:19:23;;;;;;;11.83;6.37;;;;;;;23.49;42.33;98027.19;8367864;28;20381;-74
2022/05/10 19:23:27;;;;;;;10.77;5.87;;;;;;;23.46;42.13;98027.50;8349684;28;20235;-73
2022/05/10 19:27:30;;;;;;;16.87;5.80;;;;;;;23.36;42.77;98019.63;8362719;28;20224;-74
2022/05/10 19:31:34;;;;;;;17.37;5.87;;;;;;;23.20;43.34;98022.88;8357354;28;20238;-74
2022/05/10 19:35:38;;;;;;;12.00;5.87;;;;;;;23.18;42.96;98029.31;8362923;28;20220;-74
2022/05/10 19:39:42;;;;;;;12.97;6.20;;;;;;;23.11;43.29;98025.56;8362827;28;20224;-73
2022/05/10 19:43:48;;;;;;;6.67;5.63;;;;;;;23.00;43.28;98034.50;8362939;28;20223;-73